GRAFB EGCC-EGCC
Flight info
| Callsign | GRAFB |
|---|---|
| Flight time | 0h 20m |
| Altitude | 1800 |
| Route | |
| Aircraft | G115 |
Departure
| Time | 2026-05-04 16:03 |
|---|---|
| Airport | Manchester Airport (EGCC) |
Arrival
| Time | 2026-05-04 16:23 |
|---|---|
| Airport | Manchester Airport (EGCC) |
| Time | Latitude | Longitude | Altitude | Speed | Heading |
|---|---|---|---|---|---|
| 2026-05-04 15:44 | 53.35572 | -2.28150 | 229 ft | 0 kts | 142° |
| 2026-05-04 15:45 | 53.35572 | -2.28151 | 229 ft | 0 kts | 142° |
| 2026-05-04 15:52 | 53.35568 | -2.28146 | 229 ft | 1 kts | 143° |
| 2026-05-04 15:53 | 53.35544 | -2.28136 | 231 ft | 1 kts | 183° |
| 2026-05-04 15:53 | 53.35543 | -2.28136 | 231 ft | 2 kts | 181° |
| 2026-05-04 15:53 | 53.35524 | -2.28136 | 232 ft | 3 kts | 154° |
| 2026-05-04 15:53 | 53.35532 | -2.28079 | 235 ft | 12 kts | 44° |
| 2026-05-04 15:54 | 53.35589 | -2.27972 | 238 ft | 5 kts | 49° |
| 2026-05-04 15:54 | 53.35608 | -2.27932 | 240 ft | 4 kts | 66° |
| 2026-05-04 15:54 | 53.35579 | -2.27904 | 242 ft | 11 kts | 185° |
| 2026-05-04 15:54 | 53.35530 | -2.27916 | 242 ft | 10 kts | 188° |
| 2026-05-04 15:55 | 53.35468 | -2.27894 | 241 ft | 8 kts | 131° |
| 2026-05-04 15:55 | 53.35464 | -2.27778 | 243 ft | 14 kts | 63° |
| 2026-05-04 15:55 | 53.35524 | -2.27653 | 246 ft | 5 kts | 50° |
| 2026-05-04 15:55 | 53.35526 | -2.27650 | 246 ft | 0 kts | 53° |
| 2026-05-04 15:56 | 53.35549 | -2.27601 | 248 ft | 8 kts | 51° |
| 2026-05-04 15:57 | 53.35575 | -2.27547 | 249 ft | 5 kts | 53° |
| 2026-05-04 15:57 | 53.35581 | -2.27485 | 250 ft | 5 kts | 113° |
| 2026-05-04 15:57 | 53.35567 | -2.27456 | 250 ft | 0 kts | 135° |
| 2026-05-04 15:57 | 53.35567 | -2.27455 | 250 ft | 1 kts | 135° |
| 2026-05-04 15:58 | 53.35508 | -2.27376 | 256 ft | 7 kts | 137° |
| 2026-05-04 15:58 | 53.35460 | -2.27309 | 256 ft | 17 kts | 141° |
| 2026-05-04 15:58 | 53.35362 | -2.27197 | 246 ft | 16 kts | 171° |
| 2026-05-04 15:58 | 53.35266 | -2.27213 | 241 ft | 9 kts | 191° |
| 2026-05-04 15:59 | 53.35213 | -2.27230 | 240 ft | 8 kts | 192° |
| 2026-05-04 15:59 | 53.35140 | -2.27254 | 238 ft | 0 kts | 190° |
| 2026-05-04 15:59 | 53.35066 | -2.27277 | 237 ft | 13 kts | 192° |
| 2026-05-04 15:59 | 53.34998 | -2.27342 | 234 ft | 6 kts | 233° |
| 2026-05-04 16:00 | 53.34997 | -2.27344 | 234 ft | 0 kts | 234° |
| 2026-05-04 16:01 | 53.34990 | -2.27361 | 234 ft | 10 kts | 233° |
| 2026-05-04 16:01 | 53.34844 | -2.27666 | 231 ft | 60 kts | 230° |
| 2026-05-04 16:02 | 53.34501 | -2.28360 | 256 ft | 88 kts | 232° |
| 2026-05-04 16:02 | 53.34115 | -2.29203 | 357 ft | 94 kts | 231° |
| 2026-05-04 16:02 | 53.33254 | -2.30928 | 686 ft | 102 kts | 230° |
| 2026-05-04 16:03 | 53.32652 | -2.31390 | 958 ft | 97 kts | 177° |
| 2026-05-04 16:03 | 53.32003 | -2.30964 | 1085 ft | 107 kts | 150° |
| 2026-05-04 16:03 | 53.31614 | -2.29980 | 1283 ft | 109 kts | 89° |
| 2026-05-04 16:03 | 53.31898 | -2.28771 | 1307 ft | 119 kts | 51° |
| 2026-05-04 16:04 | 53.32401 | -2.27639 | 1316 ft | 121 kts | 50° |
| 2026-05-04 16:04 | 53.33401 | -2.25568 | 1297 ft | 107 kts | 48° |
| 2026-05-04 16:04 | 53.33860 | -2.24596 | 1282 ft | 105 kts | 49° |
| 2026-05-04 16:05 | 53.34324 | -2.23666 | 1284 ft | 103 kts | 46° |
| 2026-05-04 16:05 | 53.34792 | -2.22762 | 1264 ft | 104 kts | 44° |
| 2026-05-04 16:05 | 53.35837 | -2.21206 | 1273 ft | 98 kts | 32° |
| 2026-05-04 16:06 | 53.36465 | -2.20951 | 1194 ft | 96 kts | 347° |
| 2026-05-04 16:06 | 53.37335 | -2.23207 | 700 ft | 97 kts | 252° |
| 2026-05-04 16:07 | 53.36916 | -2.24372 | 540 ft | 83 kts | 226° |
| 2026-05-04 16:07 | 53.35741 | -2.25816 | 493 ft | 73 kts | 225° |
| 2026-05-04 16:08 | 53.35415 | -2.26497 | 462 ft | 75 kts | 226° |
| 2026-05-04 16:08 | 53.34468 | -2.28451 | 215 ft | 50 kts | 226° |
| 2026-05-04 16:09 | 53.33894 | -2.29635 | 312 ft | 82 kts | 231° |
| 2026-05-04 16:09 | 53.33166 | -2.31163 | 685 ft | 88 kts | 230° |
| 2026-05-04 16:10 | 53.32085 | -2.31481 | 1087 ft | 98 kts | 149° |
| 2026-05-04 16:11 | 53.32019 | -2.28500 | 1369 ft | 121 kts | 49° |
| 2026-05-04 16:11 | 53.32513 | -2.27417 | 1344 ft | 114 kts | 53° |
| 2026-05-04 16:12 | 53.33744 | -2.24493 | 1461 ft | 94 kts | 54° |
| 2026-05-04 16:12 | 53.34801 | -2.21677 | 1549 ft | 99 kts | 56° |
| 2026-05-04 16:13 | 53.35499 | -2.19638 | 1561 ft | 106 kts | 74° |
| 2026-05-04 16:13 | 53.34660 | -2.18081 | 1469 ft | 109 kts | 195° |
| 2026-05-04 16:14 | 53.34397 | -2.19701 | 1488 ft | 103 kts | 312° |
| 2026-05-04 16:14 | 53.35296 | -2.18338 | 1454 ft | 110 kts | 120° |
| 2026-05-04 16:15 | 53.34477 | -2.19596 | 1343 ft | 105 kts | 329° |
| 2026-05-04 16:16 | 53.35386 | -2.18814 | 1355 ft | 104 kts | 83° |
| 2026-05-04 16:16 | 53.34856 | -2.19576 | 1321 ft | 97 kts | 353° |
| 2026-05-04 16:17 | 53.35292 | -2.18029 | 1347 ft | 96 kts | 142° |
| 2026-05-04 16:18 | 53.34983 | -2.19380 | 1370 ft | 93 kts | 355° |
| 2026-05-04 16:18 | 53.35512 | -2.18839 | 1370 ft | 97 kts | 67° |
| 2026-05-04 16:19 | 53.35088 | -2.18990 | 1291 ft | 99 kts | 355° |
| 2026-05-04 16:19 | 53.35899 | -2.17469 | 1453 ft | 89 kts | 52° |
| 2026-05-04 16:20 | 53.37540 | -2.17790 | 1291 ft | 94 kts | 319° |
| 2026-05-04 16:20 | 53.38224 | -2.19523 | 1121 ft | 90 kts | 290° |
| 2026-05-04 16:21 | 53.37977 | -2.22209 | 853 ft | 77 kts | 227° |
| 2026-05-04 16:22 | 53.37266 | -2.23610 | 658 ft | 81 kts | 229° |
| 2026-05-04 16:22 | 53.36232 | -2.25730 | 312 ft | 73 kts | 230° |
| 2026-05-04 16:23 | 53.35513 | -2.27209 | 255 ft | 22 kts | 233° |